Time;durP1;ratioP1;P1;durP2;ratioP2;P2;SDS_P1;SDS_P2;PMS_P1;PMS_P2;Temp;Humidity;BMP_temperature;BMP_pressure;BME280_temperature;BME280_humidity;BME280_pressure;Samples;Min_cycle;Max_cycle;Signal;HPM_P1;HPM_P2
2023/04/07 00:02:08;;;;;;;34.20;25.08;;;;;;;5.91;58.54;98889.16;4287170;33;34357;-85
2023/04/07 00:04:36;;;;;;;33.47;27.60;;;;;;;5.67;58.82;98890.22;4274241;33;34574;-85
2023/04/07 00:07:04;;;;;;;36.13;26.00;;;;;;;5.70;58.26;98885.19;4274088;33;34742;-85
2023/04/07 00:09:31;;;;;;;33.67;25.85;;;;;;;5.93;58.29;98880.69;4282954;33;34260;-85
2023/04/07 00:12:01;;;;;;;34.72;27.23;;;;;;;5.83;58.42;98887.28;4259702;33;34344;-85
2023/04/07 00:14:29;;;;;;;35.03;28.02;;;;;;;5.90;58.17;98880.56;4269201;33;33857;-85
2023/04/07 00:16:56;;;;;;;34.05;27.58;;;;;;;5.75;58.67;98880.16;4286987;33;34696;-85
2023/04/07 00:19:24;;;;;;;36.97;29.45;;;;;;;5.79;58.50;98882.84;4287118;33;33844;-85
2023/04/07 00:21:53;;;;;;;34.88;27.02;;;;;;;5.74;58.61;98883.56;4286868;33;34430;-84
2023/04/07 00:24:20;;;;;;;38.88;27.17;;;;;;;5.53;58.26;98878.69;4282599;33;33444;-85
2023/04/07 00:27:00;;;;;;;35.80;29.70;;;;;;;5.82;58.19;98880.34;4261199;33;34861;-85
2023/04/07 00:29:28;;;;;;;34.15;25.48;;;;;;;5.91;57.85;98878.84;4262462;33;34011;-84
2023/04/07 00:31:55;;;;;;;36.63;29.92;;;;;;;5.93;57.78;98877.25;4286973;33;34431;-84
2023/04/07 00:34:23;;;;;;;35.28;27.20;;;;;;;5.64;57.85;98874.72;4286605;33;33649;-84
2023/04/07 00:36:51;;;;;;;34.45;25.85;;;;;;;5.87;57.40;98872.75;4285782;33;34710;-84
2023/04/07 00:39:19;;;;;;;35.30;28.15;;;;;;;6.09;56.78;98869.09;4279995;33;34076;-85
2023/04/07 00:41:47;;;;;;;33.97;28.52;;;;;;;5.92;57.41;98865.19;4272295;33;34526;-85
2023/04/07 00:44:14;;;;;;;34.25;26.92;;;;;;;5.42;58.75;98867.22;4259244;33;33883;-84
2023/04/07 00:46:42;;;;;;;35.22;26.58;;;;;;;5.35;58.53;98867.06;4272568;33;33671;-84
2023/04/07 00:49:12;;;;;;;35.55;27.83;;;;;;;5.84;57.36;98870.12;4263421;33;33495;-84
2023/04/07 00:51:39;;;;;;;32.53;26.15;;;;;;;5.55;57.63;98859.03;4286455;33;34725;-85
2023/04/07 00:54:08;;;;;;;37.72;26.75;;;;;;;5.89;56.41;98855.69;4271707;33;33763;-85
2023/04/07 00:56:36;;;;;;;35.53;27.23;;;;;;;5.56;57.65;98855.63;4262846;33;33717;-84
2023/04/07 00:59:04;;;;;;;37.97;30.05;;;;;;;5.60;57.94;98855.75;4272254;33;33900;-84
2023/04/07 01:02:03;;;;;;;35.90;25.48;;;;;;;5.44;58.05;98852.72;4272313;33;34767;-85
2023/04/07 01:04:43;;;;;;;35.85;25.08;;;;;;;5.78;56.90;98852.81;4272457;33;33553;-85
2023/04/07 01:07:17;;;;;;;33.85;27.83;;;;;;;5.42;56.94;98850.13;4272046;33;34038;-85
2023/04/07 01:09:47;;;;;;;34.22;25.35;;;;;;;5.50;57.05;98840.91;4272963;33;33936;-85
2023/04/07 01:12:38;;;;;;;33.17;26.42;;;;;;;5.68;56.31;98844.81;4259402;33;34271;-83
2023/04/07 01:15:11;;;;;;;36.15;26.55;;;;;;;5.97;56.06;98843.03;4266327;33;34048;-84
2023/04/07 01:17:42;;;;;;;36.85;26.83;;;;;;;5.47;56.97;98840.81;4273513;33;33820;-84
2023/04/07 01:20:13;;;;;;;32.30;27.62;;;;;;;5.36;57.12;98834.53;4274364;33;35146;-84
2023/04/07 01:22:46;;;;;;;40.12;28.30;;;;;;;4.64;59.28;98830.69;4271821;33;33737;-84
2023/04/07 01:25:37;;;;;;;35.85;26.42;;;;;;;5.03;58.44;98847.25;4259084;33;33815;-85
2023/04/07 01:28:24;;;;;;;33.60;26.45;;;;;;;5.58;57.41;98841.13;4246906;33;32694;-85
2023/04/07 01:30:53;;;;;;;32.15;25.05;;;;;;;5.47;57.18;98839.97;4258928;33;35049;-84
2023/04/07 01:33:21;;;;;;;34.60;25.00;;;;;;;5.13;57.91;98834.72;4258770;33;33861;-84
2023/04/07 01:35:49;;;;;;;34.00;28.02;;;;;;;5.22;57.91;98836.69;4258400;33;34581;-84
2023/04/07 01:38:17;;;;;;;33.35;24.60;;;;;;;5.55;57.26;98833.31;4258929;33;34636;-84
2023/04/07 01:40:46;;;;;;;35.60;25.83;;;;;;;5.77;56.61;98825.34;4278358;33;34982;-85
2023/04/07 01:43:14;;;;;;;32.30;25.37;;;;;;;5.37;57.52;98829.41;4269887;33;35039;-84
2023/04/07 01:45:43;;;;;;;35.45;28.52;;;;;;;5.30;57.45;98826.63;4275008;33;33563;-84
2023/04/07 01:48:11;;;;;;;33.92;25.30;;;;;;;5.59;57.03;98819.72;4288187;33;33631;-84
2023/04/07 01:50:40;;;;;;;34.70;27.73;;;;;;;5.23;57.78;98825.59;4287837;33;35354;-84
2023/04/07 01:53:08;;;;;;;32.40;25.33;;;;;;;5.39;57.43;98824.31;4263458;33;35000;-84
2023/04/07 01:55:36;;;;;;;34.85;25.62;;;;;;;4.88;58.63;98832.25;4274955;33;33769;-84
2023/04/07 01:58:05;;;;;;;34.58;25.25;;;;;;;5.36;57.48;98829.38;4262613;33;33928;-84
2023/04/07 02:00:34;;;;;;;32.92;24.67;;;;;;;5.11;57.83;98828.69;4273367;33;35213;-84
2023/04/07 02:03:23;;;;;;;31.83;24.30;;;;;;;5.19;57.62;98830.59;4273797;33;35064;-82
2023/04/07 02:05:55;;;;;;;32.97;24.80;;;;;;;5.15;57.71;98829.63;4261141;33;34682;-84
2023/04/07 02:08:27;;;;;;;31.37;23.98;;;;;;;5.13;58.02;98823.59;4273717;33;33040;-84
2023/04/07 02:10:57;;;;;;;37.25;27.52;;;;;;;5.40;57.36;98827.75;4265140;33;35212;-84
2023/04/07 02:13:26;;;;;;;31.27;24.05;;;;;;;4.86;58.92;98829.66;4287632;33;34943;-84
2023/04/07 02:15:55;;;;;;;34.15;24.23;;;;;;;5.04;58.98;98833.63;4274747;33;33311;-84
2023/04/07 02:18:24;;;;;;;33.78;24.80;;;;;;;5.40;57.88;98832.91;4262970;33;32913;-83
2023/04/07 02:20:52;;;;;;;30.42;24.33;;;;;;;5.53;57.45;98834.97;4274379;33;34251;-83
2023/04/07 02:23:19;;;;;;;33.40;26.12;;;;;;;5.11;58.26;98830.38;4274339;33;34067;-84
2023/04/07 02:25:46;;;;;;;33.83;24.40;;;;;;;5.37;57.86;98824.25;4270120;33;33435;-84
2023/04/07 02:28:14;;;;;;;30.95;23.80;;;;;;;5.34;58.06;98829.34;4273424;33;33979;-84
2023/04/07 02:30:43;;;;;;;29.17;23.42;;;;;;;5.53;57.50;98832.41;4273503;33;34406;-84
2023/04/07 02:33:11;;;;;;;32.08;24.77;;;;;;;5.61;56.83;98828.38;4273294;33;34254;-83
2023/04/07 02:35:38;;;;;;;28.95;24.98;;;;;;;5.35;57.29;98831.09;4261097;33;33642;-84
2023/04/07 02:38:06;;;;;;;32.60;24.60;;;;;;;5.40;57.68;98825.19;4273355;33;34500;-83
2023/04/07 02:40:35;;;;;;;33.22;23.60;;;;;;;5.02;59.86;98830.13;4273613;33;33973;-84
2023/04/07 02:43:04;;;;;;;33.40;25.55;;;;;;;4.92;59.53;98828.09;4284839;33;34272;-83
2023/04/07 02:45:31;;;;;;;31.80;24.95;;;;;;;4.97;59.98;98829.13;4286383;33;34385;-83
2023/04/07 02:47:59;;;;;;;34.88;27.15;;;;;;;4.80;60.50;98834.59;4274860;33;33594;-85
2023/04/07 02:50:27;;;;;;;36.70;26.15;;;;;;;4.04;62.94;98832.19;4287534;33;35018;-84
2023/04/07 02:52:55;;;;;;;34.03;26.35;;;;;;;4.56;61.66;98833.88;4274759;33;33364;-84
2023/04/07 02:55:25;;;;;;;34.45;26.08;;;;;;;4.61;61.87;98827.16;4288056;33;34016;-84
2023/04/07 02:57:52;;;;;;;35.95;26.35;;;;;;;4.90;61.12;98829.75;4287618;33;34837;-84
2023/04/07 03:00:20;;;;;;;37.58;25.35;;;;;;;4.57;61.89;98826.19;4283007;33;32801;-84
2023/04/07 03:02:49;;;;;;;39.67;27.42;;;;;;;4.65;62.00;98829.00;4266215;33;34160;-84
2023/04/07 03:05:18;;;;;;;35.90;27.17;;;;;;;4.25;63.14;98827.78;4287630;33;34455;-84
2023/04/07 03:07:45;;;;;;;35.28;26.55;;;;;;;4.63;62.55;98822.97;4287539;33;34735;-84
2023/04/07 03:10:13;;;;;;;32.92;25.80;;;;;;;4.81;61.99;98831.22;4287623;33;34270;-84
2023/04/07 03:12:42;;;;;;;35.92;27.15;;;;;;;4.71;62.32;98826.63;4287161;33;35077;-84
2023/04/07 03:15:10;;;;;;;38.88;30.15;;;;;;;4.78;62.36;98832.84;4268251;33;33786;-83
2023/04/07 03:17:38;;;;;;;41.83;28.55;;;;;;;4.52;63.40;98826.91;4273239;33;33897;-84
2023/04/07 03:20:09;;;;;;;36.05;27.00;;;;;;;4.78;62.34;98825.13;4274105;33;33827;-84
2023/04/07 03:22:36;;;;;;;36.55;26.52;;;;;;;5.04;61.59;98824.19;4279536;33;33935;-85
2023/04/07 03:25:06;;;;;;;36.53;28.38;;;;;;;4.59;62.75;98828.84;4273314;33;34807;-85
2023/04/07 03:27:34;;;;;;;36.15;27.05;;;;;;;4.48;63.12;98831.06;4272983;33;34835;-84
2023/04/07 03:30:02;;;;;;;39.72;28.83;;;;;;;4.55;63.07;98833.00;4282578;33;33928;-83
2023/04/07 03:32:29;;;;;;;35.85;26.70;;;;;;;5.03;61.51;98829.28;4285574;33;33810;-82
2023/04/07 03:34:57;;;;;;;35.35;26.25;;;;;;;4.81;62.16;98825.19;4278808;33;33638;-83
2023/04/07 03:37:25;;;;;;;31.90;26.12;;;;;;;4.56;62.51;98826.16;4287569;33;34652;-83
2023/04/07 03:39:53;;;;;;;32.50;26.20;;;;;;;4.21;64.10;98828.50;4287645;33;34996;-83
2023/04/07 03:42:21;;;;;;;35.92;26.62;;;;;;;4.87;62.43;98830.53;4274036;33;32896;-83
2023/04/07 03:44:49;;;;;;;36.50;27.52;;;;;;;4.39;63.80;98821.38;4287040;33;33614;-82
2023/04/07 03:47:17;;;;;;;39.58;27.02;;;;;;;4.48;63.00;98817.34;4274265;33;33930;-83
2023/04/07 03:49:48;;;;;;;35.03;26.77;;;;;;;4.87;62.13;98815.97;4260594;33;34382;-82
2023/04/07 03:52:15;;;;;;;33.55;25.60;;;;;;;4.69;62.75;98812.87;4273099;33;33943;-82
2023/04/07 03:54:44;;;;;;;36.35;26.02;;;;;;;5.20;60.70;98810.09;4273187;33;34458;-82
2023/04/07 03:57:12;;;;;;;36.05;25.75;;;;;;;4.93;61.50;98809.31;4273288;33;34012;-83
2023/04/07 03:59:40;;;;;;;35.63;27.00;;;;;;;4.78;61.70;98815.72;4287602;33;34147;-83
2023/04/07 04:02:08;;;;;;;35.47;27.70;;;;;;;4.41;63.27;98828.25;4273466;33;34155;-82
2023/04/07 04:04:36;;;;;;;35.35;25.98;;;;;;;4.71;62.28;98821.50;4287246;33;33863;-84
2023/04/07 04:07:04;;;;;;;37.35;26.75;;;;;;;5.09;60.63;98820.06;4287174;33;34602;-83
2023/04/07 04:09:32;;;;;;;34.63;27.00;;;;;;;5.07;60.98;98826.84;4286162;33;34222;-83
2023/04/07 04:12:00;;;;;;;35.42;27.20;;;;;;;4.99;61.41;98830.00;4272831;33;34534;-82
2023/04/07 04:14:29;;;;;;;34.75;25.92;;;;;;;5.15;60.71;98827.06;4260155;33;33338;-83
2023/04/07 04:16:57;;;;;;;35.17;25.85;;;;;;;4.80;61.07;98838.88;4272513;33;34398;-84
2023/04/07 04:19:25;;;;;;;33.13;24.73;;;;;;;4.88;61.70;98830.56;4272724;33;34973;-83
2023/04/07 04:21:53;;;;;;;34.90;26.20;;;;;;;4.93;60.94;98829.84;4272721;33;34065;-83
2023/04/07 04:24:21;;;;;;;36.25;26.48;;;;;;;4.59;61.87;98829.69;4273383;33;33821;-82
2023/04/07 04:26:49;;;;;;;39.88;28.17;;;;;;;4.26;63.31;98834.63;4272736;33;34096;-84
2023/04/07 04:29:16;;;;;;;36.17;26.52;;;;;;;4.58;62.65;98830.53;4272671;33;33846;-85
2023/04/07 04:31:45;;;;;;;35.90;26.50;;;;;;;4.60;62.18;98836.56;4259397;33;34205;-85
2023/04/07 04:34:13;;;;;;;36.67;26.35;;;;;;;4.38;62.75;98836.72;4272686;33;34147;-85
2023/04/07 04:36:41;;;;;;;36.35;26.55;;;;;;;4.33;63.46;98835.72;4272611;33;33974;-85
2023/04/07 04:39:09;;;;;;;37.90;27.05;;;;;;;4.24;63.54;98846.53;4273809;33;34208;-85
2023/04/07 04:41:37;;;;;;;38.05;27.00;;;;;;;4.07;64.17;98842.56;4265230;33;34297;-85
2023/04/07 04:44:05;;;;;;;40.35;28.30;;;;;;;4.39;64.23;98836.78;4273699;33;32970;-84
2023/04/07 04:46:34;;;;;;;37.75;28.42;;;;;;;4.35;63.51;98852.88;4285438;33;34704;-85
2023/04/07 04:49:02;;;;;;;37.10;27.67;;;;;;;4.65;63.28;98846.97;4286845;33;34560;-84
2023/04/07 04:51:30;;;;;;;38.17;29.12;;;;;;;5.07;62.03;98849.97;4286671;33;34265;-85
2023/04/07 04:53:59;;;;;;;41.03;28.52;;;;;;;4.90;62.94;98856.31;4273628;33;33843;-85
2023/04/07 04:56:27;;;;;;;40.22;28.00;;;;;;;5.07;61.58;98854.22;4275739;33;33878;-84
2023/04/07 04:58:55;;;;;;;40.17;28.48;;;;;;;4.71;62.67;98848.88;4272124;33;35202;-85
2023/04/07 05:01:23;;;;;;;36.95;28.55;;;;;;;4.91;62.44;98859.75;4272324;33;34308;-85
2023/04/07 05:03:52;;;;;;;35.50;28.10;;;;;;;5.02;62.01;98866.09;4273763;33;34549;-85
2023/04/07 05:06:20;;;;;;;38.35;28.48;;;;;;;4.53;63.27;98857.75;4262194;33;33894;-83
2023/04/07 05:08:48;;;;;;;37.05;27.85;;;;;;;4.87;62.67;98857.09;4273459;33;33494;-85
2023/04/07 05:11:17;;;;;;;42.65;30.30;;;;;;;4.90;61.89;98860.59;4285383;33;34153;-84
2023/04/07 05:13:45;;;;;;;40.90;29.35;;;;;;;4.96;62.01;98876.16;4286043;33;33386;-85
2023/04/07 05:16:13;;;;;;;37.92;28.50;;;;;;;5.00;62.13;98878.00;4274630;33;33867;-85
2023/04/07 05:18:41;;;;;;;37.00;27.52;;;;;;;5.03;61.70;98881.53;4273985;33;33841;-85
2023/04/07 05:21:08;;;;;;;35.85;27.75;;;;;;;5.32;60.73;98874.69;4274052;33;33911;-84
2023/04/07 05:23:36;;;;;;;35.28;27.58;;;;;;;4.87;61.88;98866.50;4274083;33;33221;-85
2023/04/07 05:26:04;;;;;;;38.80;29.45;;;;;;;5.28;61.25;98854.88;4274130;33;33582;-85
2023/04/07 05:28:31;;;;;;;38.53;29.63;;;;;;;4.98;61.80;98869.38;4273576;33;33990;-83
2023/04/07 05:31:00;;;;;;;36.90;29.30;;;;;;;4.88;61.76;98876.78;4275918;33;34114;-85
2023/04/07 05:33:29;;;;;;;37.15;28.58;;;;;;;5.22;61.02;98885.50;4274047;33;33571;-83
2023/04/07 05:35:56;;;;;;;44.60;29.80;;;;;;;5.13;61.28;98892.97;4273743;33;34059;-83
2023/04/07 05:38:24;;;;;;;41.03;30.55;;;;;;;4.77;63.01;98883.34;4282716;33;34938;-83
2023/04/07 05:40:53;;;;;;;39.92;30.02;;;;;;;5.06;61.96;98884.19;4267686;33;34002;-83
2023/04/07 05:43:21;;;;;;;42.80;29.75;;;;;;;4.95;62.11;98887.28;4273730;33;33840;-83
2023/04/07 05:45:48;;;;;;;42.00;29.70;;;;;;;4.78;62.91;98886.75;4275365;33;35236;-82
2023/04/07 05:48:17;;;;;;;44.25;30.92;;;;;;;4.46;64.08;98893.44;4278622;33;33772;-83
2023/04/07 05:50:45;;;;;;;43.13;31.35;;;;;;;4.27;64.27;98887.69;4273653;33;34762;-82
2023/04/07 05:53:14;;;;;;;45.40;32.20;;;;;;;4.34;64.32;98887.06;4273786;33;33398;-82
2023/04/07 05:55:42;;;;;;;44.03;32.22;;;;;;;4.57;63.83;98889.50;4273631;33;33944;-83
2023/04/07 05:58:10;;;;;;;41.00;30.67;;;;;;;4.77;62.85;98885.00;4273611;33;34016;-83
2023/04/07 06:00:40;;;;;;;42.28;30.80;;;;;;;4.98;62.12;98884.81;4273830;33;34443;-83
2023/04/07 06:03:08;;;;;;;42.17;29.25;;;;;;;5.00;61.94;98883.13;4286863;33;33685;-83
2023/04/07 06:05:42;;;;;;;42.28;31.48;;;;;;;4.63;63.54;98882.03;4287852;33;34842;-83
2023/04/07 06:08:10;;;;;;;45.38;31.42;;;;;;;4.49;64.13;98888.41;4288062;33;34036;-83
2023/04/07 06:10:40;;;;;;;45.17;30.92;;;;;;;4.51;64.14;98891.88;4283966;33;34293;-83
2023/04/07 06:13:07;;;;;;;43.50;31.58;;;;;;;4.66;63.77;98883.78;4274967;33;33337;-84
2023/04/07 06:15:35;;;;;;;42.15;30.80;;;;;;;4.48;64.50;98886.66;4287529;33;33674;-82
2023/04/07 06:18:03;;;;;;;45.08;29.80;;;;;;;4.69;63.78;98895.03;4273828;33;34931;-83
2023/04/07 06:20:30;;;;;;;47.45;31.80;;;;;;;5.03;62.83;98888.37;4273563;33;34298;-83
2023/04/07 06:22:58;;;;;;;41.37;31.40;;;;;;;5.25;61.68;98877.91;4260564;33;34499;-83
2023/04/07 06:25:26;;;;;;;42.22;31.60;;;;;;;5.43;60.93;98884.41;4273186;33;34839;-83
2023/04/07 06:27:54;;;;;;;41.13;29.77;;;;;;;5.56;60.60;98886.50;4260286;33;34230;-84
2023/04/07 06:30:22;;;;;;;41.75;30.65;;;;;;;5.08;61.34;98889.41;4273561;33;34211;-83
2023/04/07 06:32:50;;;;;;;41.10;30.35;;;;;;;5.02;61.91;98886.63;4281535;33;32619;-83
2023/04/07 06:35:17;;;;;;;43.80;31.50;;;;;;;4.87;62.90;98877.62;4273412;33;33902;-83
2023/04/07 06:37:45;;;;;;;43.72;31.55;;;;;;;5.48;61.15;98885.41;4273327;33;35006;-84
2023/04/07 06:40:13;;;;;;;42.05;32.40;;;;;;;5.47;60.28;98891.38;4284768;33;35054;-84
2023/04/07 06:42:40;;;;;;;43.45;31.85;;;;;;;5.09;61.81;98888.56;4287735;33;34553;-83
2023/04/07 06:45:09;;;;;;;42.67;31.58;;;;;;;5.20;61.25;98901.75;4287605;33;33989;-82
2023/04/07 06:47:37;;;;;;;44.95;35.75;;;;;;;4.93;62.43;98891.50;4279257;33;34049;-82
2023/04/07 06:50:05;;;;;;;46.88;31.95;;;;;;;5.13;62.25;98901.53;4273180;33;34760;-82
2023/04/07 06:52:33;;;;;;;42.15;33.20;;;;;;;5.15;62.75;98903.28;4260338;33;32515;-83
2023/04/07 06:55:02;;;;;;;43.63;31.40;;;;;;;5.35;61.55;98903.06;4275381;33;34167;-84
2023/04/07 06:57:29;;;;;;;40.72;30.95;;;;;;;5.12;62.08;98909.22;4274600;33;33827;-83
2023/04/07 06:59:57;;;;;;;41.75;30.15;;;;;;;5.49;60.49;98906.03;4287328;33;34096;-82
2023/04/07 07:02:25;;;;;;;42.33;29.02;;;;;;;5.46;60.85;98920.50;4281827;33;34044;-83
2023/04/07 07:04:52;;;;;;;38.35;29.65;;;;;;;5.75;60.49;98923.88;4279980;33;34060;-83
2023/04/07 07:07:20;;;;;;;39.70;29.65;;;;;;;5.54;60.10;98924.16;4274556;33;34134;-86
2023/04/07 07:09:47;;;;;;;40.42;32.03;;;;;;;5.48;60.45;98917.13;4272916;33;34840;-85
2023/04/07 07:12:16;;;;;;;40.17;33.80;;;;;;;5.77;59.52;98924.81;4273056;33;33883;-85
2023/04/07 07:14:45;;;;;;;40.63;28.95;;;;;;;5.99;59.59;98934.03;4272981;33;34915;-83
2023/04/07 07:17:13;;;;;;;38.88;30.67;;;;;;;5.73;59.65;98935.84;4278665;33;34300;-83
2023/04/07 07:19:40;;;;;;;41.70;31.95;;;;;;;6.15;58.79;98933.59;4272509;33;33884;-84
2023/04/07 07:22:08;;;;;;;41.90;33.10;;;;;;;6.24;59.25;98932.97;4286987;33;34506;-84
2023/04/07 07:24:35;;;;;;;36.80;30.02;;;;;;;6.57;57.78;98932.94;4274415;33;33942;-83
2023/04/07 07:27:03;;;;;;;36.38;30.58;;;;;;;6.51;57.18;98940.50;4287269;33;33968;-83
2023/04/07 07:29:30;;;;;;;37.85;29.95;;;;;;;6.51;57.46;98940.50;4282497;33;34270;-82
2023/04/07 07:31:58;;;;;;;37.47;29.90;;;;;;;6.46;57.17;98942.13;4260192;33;34102;-83
2023/04/07 07:34:25;;;;;;;37.30;29.75;;;;;;;5.92;58.16;98952.66;4272913;33;33648;-83
2023/04/07 07:36:53;;;;;;;36.58;31.10;;;;;;;6.09;59.10;98946.28;4272434;33;34202;-83
2023/04/07 07:39:20;;;;;;;37.38;30.05;;;;;;;6.16;58.72;98955.91;4272591;33;34831;-82
2023/04/07 07:41:49;;;;;;;36.90;28.55;;;;;;;6.76;56.28;98948.03;4273142;33;33625;-82
2023/04/07 07:44:19;;;;;;;38.42;30.27;;;;;;;6.16;57.98;98961.06;4273119;33;33833;-83
2023/04/07 07:46:46;;;;;;;38.90;32.13;;;;;;;6.48;58.16;98956.78;4285646;33;34230;-84
2023/04/07 07:49:14;;;;;;;42.22;31.48;;;;;;;5.92;60.24;98962.94;4287448;33;34212;-83
2023/04/07 07:51:42;;;;;;;42.53;34.08;;;;;;;5.99;61.82;98970.06;4286856;33;33885;-84
2023/04/07 07:54:09;;;;;;;43.03;33.33;;;;;;;6.66;60.18;98961.50;4278092;33;33447;-83
2023/04/07 07:56:37;;;;;;;41.03;33.75;;;;;;;6.56;60.37;98962.13;4272886;33;34252;-84
2023/04/07 07:59:05;;;;;;;42.78;33.33;;;;;;;6.54;60.70;98976.66;4273428;33;34173;-84
2023/04/07 08:01:32;;;;;;;43.92;34.17;;;;;;;6.74;60.16;98969.41;4277466;33;35112;-84
2023/04/07 08:04:00;;;;;;;40.45;33.33;;;;;;;6.60;61.05;98974.25;4287034;33;33983;-82
2023/04/07 08:06:30;;;;;;;40.85;32.08;;;;;;;6.56;60.28;98993.91;4272964;33;34119;-83
2023/04/07 08:08:57;;;;;;;39.95;33.45;;;;;;;6.43;61.27;98985.81;4286313;33;33497;-83
2023/04/07 08:11:25;;;;;;;44.00;34.75;;;;;;;6.37;61.64;98994.25;4280630;33;33521;-84
2023/04/07 08:13:53;;;;;;;39.17;33.60;;;;;;;6.36;62.05;98999.34;4287374;33;35048;-83
2023/04/07 08:16:21;;;;;;;42.80;34.83;;;;;;;6.26;62.36;98996.53;4289210;33;34235;-83
2023/04/07 08:18:50;;;;;;;39.42;32.80;;;;;;;6.36;63.05;98996.78;4281257;33;34398;-85
2023/04/07 08:21:18;;;;;;;39.35;29.48;;;;;;;6.09;63.22;99002.91;4272582;33;34653;-84
2023/04/07 08:23:46;;;;;;;40.67;32.75;;;;;;;6.33;61.70;99000.16;4272703;33;34362;-84
2023/04/07 08:26:14;;;;;;;42.35;34.17;;;;;;;6.29;61.21;98998.34;4272630;33;35066;-84
2023/04/07 08:28:42;;;;;;;41.72;31.08;;;;;;;6.17;62.50;99000.53;4268817;33;34022;-84
2023/04/07 08:31:09;;;;;;;43.50;33.90;;;;;;;6.18;62.38;99004.88;4284530;33;33569;-83
2023/04/07 08:33:37;;;;;;;43.03;34.20;;;;;;;6.18;63.13;99005.75;4286937;33;33751;-85
2023/04/07 08:36:05;;;;;;;38.65;31.95;;;;;;;6.24;61.21;99000.75;4284318;33;34458;-82
2023/04/07 08:38:32;;;;;;;42.13;30.33;;;;;;;6.25;61.90;99007.66;4267385;33;34301;-84
2023/04/07 08:41:11;;;;;;;41.85;33.88;;;;;;;6.58;60.62;99004.22;4282692;33;33860;-85
2023/04/07 08:43:40;;;;;;;42.22;32.60;;;;;;;6.68;61.30;99007.94;4284993;33;34693;-85
2023/04/07 08:46:08;;;;;;;34.92;29.85;;;;;;;6.89;60.59;99003.28;4271950;33;34278;-84
2023/04/07 08:48:37;;;;;;;38.60;30.27;;;;;;;6.82;59.20;99001.44;4284253;33;34177;-84
2023/04/07 08:51:07;;;;;;;40.58;30.05;;;;;;;7.04;58.96;99005.38;4263805;33;34721;-85
2023/04/07 08:53:40;;;;;;;38.50;30.45;;;;;;;7.32;58.88;99009.50;4286353;33;34029;-85
2023/04/07 08:56:10;;;;;;;41.28;33.20;;;;;;;6.88;59.82;99011.00;4276474;33;35095;-84
2023/04/07 08:58:38;;;;;;;39.33;33.00;;;;;;;7.09;58.86;99013.25;4276816;33;34127;-84
2023/04/07 09:01:07;;;;;;;38.78;31.45;;;;;;;6.94;60.76;99013.75;4286151;33;34238;-85
2023/04/07 09:03:34;;;;;;;39.63;31.35;;;;;;;7.20;59.18;99007.50;4272647;33;33648;-84
2023/04/07 09:06:03;;;;;;;40.10;31.15;;;;;;;7.02;59.48;99005.34;4269811;33;35163;-84
2023/04/07 09:08:30;;;;;;;41.88;32.42;;;;;;;7.26;59.61;99007.63;4262658;33;35047;-84
2023/04/07 09:10:57;;;;;;;43.67;34.13;;;;;;;7.04;59.60;99010.53;4270190;33;33472;-84
2023/04/07 09:13:25;;;;;;;43.15;31.62;;;;;;;7.17;59.83;99010.00;4286038;33;34554;-84
2023/04/07 09:15:53;;;;;;;41.90;31.98;;;;;;;6.96;61.38;99006.91;4272898;33;33959;-84
2023/04/07 09:18:20;;;;;;;38.55;31.83;;;;;;;7.51;59.05;99000.47;4273153;33;34851;-85
2023/04/07 09:21:02;;;;;;;41.10;32.13;;;;;;;7.24;60.16;99001.59;4286200;33;33323;-84
2023/04/07 09:23:38;;;;;;;41.70;31.90;;;;;;;7.19;60.39;99005.75;4265527;33;33888;-84
2023/04/07 09:26:24;;;;;;;41.85;31.45;;;;;;;7.34;60.39;98999.19;4263312;33;34277;-84
2023/04/07 09:28:58;;;;;;;39.65;30.05;;;;;;;7.46;57.97;98996.91;4272910;33;34138;-85
2023/04/07 09:31:46;;;;;;;46.67;34.83;;;;;;;6.93;60.10;99004.25;4285960;33;33529;-84
2023/04/07 09:34:23;;;;;;;43.60;34.30;;;;;;;7.57;58.58;98998.88;4271313;33;33903;-83
2023/04/07 09:36:51;;;;;;;44.90;32.50;;;;;;;7.30;60.22;99001.69;4281494;33;34296;-84
2023/04/07 09:39:19;;;;;;;38.85;29.80;;;;;;;7.18;60.39;99003.13;4285455;33;34231;-85
2023/04/07 09:41:47;;;;;;;49.42;36.25;;;;;;;7.51;59.45;98998.75;4283466;33;33762;-84
2023/04/07 09:44:14;;;;;;;44.20;32.28;;;;;;;7.71;58.50;99018.94;4272672;33;34505;-85
2023/04/07 09:46:49;;;;;;;38.50;28.87;;;;;;;7.93;57.63;99008.25;4284905;33;33974;-84
2023/04/07 09:49:19;;;;;;;35.17;27.08;;;;;;;7.79;57.31;99007.94;4282211;33;34202;-83
2023/04/07 09:52:03;;;;;;;43.17;31.25;;;;;;;7.70;56.98;99005.19;4284159;33;34519;-84
2023/04/07 09:54:38;;;;;;;39.47;30.42;;;;;;;7.67;56.56;99007.69;4277415;33;36437;-84
2023/04/07 09:57:10;;;;;;;38.70;29.52;;;;;;;8.00;56.13;99004.09;4270139;33;33651;-84
2023/04/07 09:59:44;;;;;;;37.58;29.63;;;;;;;7.73;56.41;99013.00;4262288;33;34821;-83
2023/04/07 10:02:11;;;;;;;35.63;28.50;;;;;;;7.68;56.75;99012.00;4287901;33;34582;-83
2023/04/07 10:04:40;;;;;;;41.92;31.60;;;;;;;7.26;57.54;99002.47;4285993;33;34448;-82
2023/04/07 10:07:07;;;;;;;39.97;31.60;;;;;;;7.13;58.48;99013.34;4287787;33;34192;-84
2023/04/07 10:09:35;;;;;;;37.75;29.52;;;;;;;7.37;59.37;99007.00;4287263;33;34430;-82
2023/04/07 10:12:03;;;;;;;36.38;29.70;;;;;;;7.52;57.07;99007.34;4281565;33;33526;-83
2023/04/07 10:14:31;;;;;;;38.25;28.87;;;;;;;7.63;56.92;99005.03;4286001;33;34796;-83
2023/04/07 10:17:00;;;;;;;39.42;29.27;;;;;;;7.64;56.84;99007.63;4260576;33;34854;-83
2023/04/07 10:19:31;;;;;;;44.95;33.10;;;;;;;7.93;57.07;99002.22;4283830;33;34834;-83
2023/04/07 10:21:58;;;;;;;36.78;27.33;;;;;;;7.97;56.44;99004.03;4287115;33;33370;-83
2023/04/07 10:24:40;;;;;;;33.03;27.10;;;;;;;7.17;58.25;99004.84;4287854;33;33800;-83
2023/04/07 10:27:11;;;;;;;35.33;28.60;;;;;;;7.18;58.47;99009.16;4287842;33;34349;-84
2023/04/07 10:29:44;;;;;;;36.20;29.12;;;;;;;8.06;55.74;99006.78;4274391;33;34844;-85
2023/04/07 10:32:11;;;;;;;36.28;28.95;;;;;;;8.34;56.69;99015.09;4287817;33;33557;-83
2023/04/07 10:34:54;;;;;;;33.65;26.62;;;;;;;8.53;55.63;99012.91;4283759;33;33985;-85
2023/04/07 10:37:23;;;;;;;34.50;27.23;;;;;;;8.55;55.11;99010.34;4280112;33;33857;-85
2023/04/07 10:40:17;;;;;;;33.95;26.00;;;;;;;8.40;55.29;99017.81;4273562;33;34596;-85
2023/04/07 10:42:46;;;;;;;35.75;25.88;;;;;;;8.47;54.04;99006.75;4273398;33;33368;-85
2023/04/07 10:45:14;;;;;;;32.85;26.25;;;;;;;8.26;53.89;99018.37;4260466;33;33998;-85
2023/04/07 10:47:56;;;;;;;34.42;26.92;;;;;;;7.98;54.59;99005.75;4273259;33;35073;-84
2023/04/07 10:50:24;;;;;;;36.45;27.27;;;;;;;7.76;55.70;99020.78;4273366;33;34081;-83
2023/04/07 10:53:07;;;;;;;37.97;30.10;;;;;;;7.89;56.00;99010.75;4286168;33;33508;-85
2023/04/07 10:55:42;;;;;;;34.05;27.40;;;;;;;7.88;55.79;99014.12;4287790;33;33991;-85
2023/04/07 10:58:24;;;;;;;34.70;26.98;;;;;;;8.25;55.98;99019.22;4287693;33;34060;-85
2023/04/07 11:01:07;;;;;;;32.53;24.37;;;;;;;8.16;56.42;99013.88;4287691;33;35196;-85
2023/04/07 11:03:37;;;;;;;32.65;25.23;;;;;;;8.66;53.45;99008.81;4276461;33;34610;-84
2023/04/07 11:06:12;;;;;;;33.85;22.98;;;;;;;8.46;53.91;99018.78;4269523;33;33535;-82
2023/04/07 11:08:46;;;;;;;32.88;25.35;;;;;;;8.81;52.97;99010.81;4276313;33;34468;-85
2023/04/07 11:11:21;;;;;;;;;;;;;;;8.95;52.81;99005.88;4260868;33;34137;-86
2023/04/07 11:13:50;;;;;;;32.53;24.52;;;;;;;9.04;52.08;99010.31;4259345;33;34433;-85
2023/04/07 11:16:19;;;;;;;38.63;32.22;;;;;;;8.82;52.26;99009.94;4272871;33;34019;-83
2023/04/07 11:18:46;;;;;;;28.90;22.87;;;;;;;8.86;52.74;99013.47;4273116;33;35160;-85
2023/04/07 11:21:18;;;;;;;31.95;23.77;;;;;;;8.43;53.12;99023.03;4282801;33;33881;-84
2023/04/07 11:23:47;;;;;;;28.62;23.52;;;;;;;8.21;53.92;99014.81;4277597;33;33911;-84
2023/04/07 11:26:15;;;;;;;30.35;24.45;;;;;;;8.69;52.80;99005.44;4283716;33;35011;-85
2023/04/07 11:28:54;;;;;;;35.88;31.30;;;;;;;8.58;52.96;99014.69;4273745;33;34101;-85
2023/04/07 11:31:30;;;;;;;30.65;24.40;;;;;;;8.64;53.07;99020.84;4256494;33;34429;-85
2023/04/07 11:33:58;;;;;;;;;;;;;;;8.91;52.10;99011.84;4272391;33;34580;-85
2023/04/07 11:36:27;;;;;;;31.30;25.02;;;;;;;8.76;52.49;99009.87;4287461;33;35100;-84
2023/04/07 11:38:56;;;;;;;31.25;24.05;;;;;;;8.91;52.69;99010.13;4287320;33;34783;-84